Time;durP1;ratioP1;P1;durP2;ratioP2;P2;SDS_P1;SDS_P2;PMS_P1;PMS_P2;Temp;Humidity;BMP_temperature;BMP_pressure;BME280_temperature;BME280_humidity;BME280_pressure;Samples;Min_cycle;Max_cycle;Signal;HPM_P1;HPM_P2
2022/06/14 00:01:29;;;;;;;2.10;2.00;;;;;;;;;;4992545;28;20680;-85
2022/06/14 00:03:57;;;;;;;2.00;1.90;;;;;;;;;;4992311;28;20282;-84
2022/06/14 00:06:26;;;;;;;2.67;2.30;;;;;;;;;;4991618;28;20239;-85
2022/06/14 00:08:53;;;;;;;2.30;2.13;;;;;;;;;;4992443;28;20207;-84
2022/06/14 00:11:22;;;;;;;2.30;2.07;;;;;;;;;;4992072;28;20246;-84
2022/06/14 00:13:50;;;;;;;2.10;1.90;;;;;;;;;;4992373;28;20239;-84
2022/06/14 00:16:19;;;;;;;3.00;1.97;;;;;;;;;;4991963;28;20239;-84
2022/06/14 00:18:47;;;;;;;3.13;2.10;;;;;;;;;;4992252;28;20219;-84
2022/06/14 00:21:14;;;;;;;4.93;2.30;;;;;;;;;;4991750;28;20239;-84
2022/06/14 00:23:41;;;;;;;1.90;1.80;;;;;;;;;;4991980;28;20212;-84
2022/06/14 00:26:08;;;;;;;2.60;2.40;;;;;;;;;;4993691;28;20243;-85
2022/06/14 00:28:36;;;;;;;3.00;2.47;;;;;;;;;;4995475;28;20715;-84
2022/06/14 00:31:04;;;;;;;2.37;1.67;;;;;;;;;;4994929;28;20648;-84
2022/06/14 00:33:32;;;;;;;2.63;1.70;;;;;;;;;;4995595;28;20231;-84
2022/06/14 00:36:00;;;;;;;2.20;1.97;;;;;;;;;;4995026;28;20236;-84
2022/06/14 00:38:27;;;;;;;2.13;1.87;;;;;;;;;;4995997;28;20211;-84
2022/06/14 00:40:55;;;;;;;2.37;2.17;;;;;;;;;;4995097;28;20243;-84
2022/06/14 00:43:23;;;;;;;2.20;2.10;;;;;;;;;;4995207;28;20638;-84
2022/06/14 00:46:08;;;;;;;1.83;1.73;;;;;;;;;;4994752;28;20587;-84
2022/06/14 00:48:37;;;;;;;5.00;2.10;;;;;;;;;;4995279;28;20208;-84
2022/06/14 00:51:06;;;;;;;2.30;2.00;;;;;;;;;;4994790;28;20282;-84
2022/06/14 00:53:37;;;;;;;1.97;1.87;;;;;;;;;;4995576;28;20232;-84
2022/06/14 00:56:06;;;;;;;1.90;1.80;;;;;;;;;;4994952;28;20723;-85
2022/06/14 00:58:34;;;;;;;1.97;1.87;;;;;;;;;;4993655;28;20204;-84
2022/06/14 01:01:02;;;;;;;2.30;2.10;;;;;;;;;;4992490;28;20746;-84
2022/06/14 01:03:32;;;;;;;2.00;1.90;;;;;;;;;;4994708;28;20216;-84
2022/06/14 01:06:07;;;;;;;1.87;1.77;;;;;;;;;;4992666;28;20240;-85
2022/06/14 01:08:36;;;;;;;1.90;1.80;;;;;;;;;;4994787;28;20212;-84
2022/06/14 01:11:04;;;;;;;4.03;1.90;;;;;;;;;;4994239;28;20263;-84
2022/06/14 01:13:31;;;;;;;2.20;1.90;;;;;;;;;;4994344;28;20228;-84
2022/06/14 01:15:58;;;;;;;3.00;2.00;;;;;;;;;;4994688;28;20236;-84
2022/06/14 01:18:26;;;;;;;2.20;2.10;;;;;;;;;;4994820;28;20200;-83
2022/06/14 01:20:53;;;;;;;2.00;1.90;;;;;;;;;;4994562;28;20232;-84
2022/06/14 01:23:22;;;;;;;2.43;2.23;;;;;;;;;;4994455;28;20212;-84
2022/06/14 01:25:51;;;;;;;2.53;2.10;;;;;;;;;;4994111;28;20248;-84
2022/06/14 01:28:20;;;;;;;2.13;2.03;;;;;;;;;;4994860;28;20208;-84
2022/06/14 01:30:49;;;;;;;2.37;2.17;;;;;;;;;;4994394;28;20700;-84
2022/06/14 01:33:18;;;;;;;3.13;1.80;;;;;;;;;;4994937;28;20235;-84
2022/06/14 01:35:47;;;;;;;2.10;2.00;;;;;;;;;;4994630;28;20271;-85
2022/06/14 01:38:15;;;;;;;2.47;2.30;;;;;;;;;;4993940;28;20875;-84
2022/06/14 01:40:50;;;;;;;2.30;2.10;;;;;;;;;;4994247;28;20236;-84
2022/06/14 01:43:23;;;;;;;2.17;2.07;;;;;;;;;;4994371;28;20302;-84
2022/06/14 01:45:56;;;;;;;2.77;2.10;;;;;;;;;;4993955;28;20243;-84
2022/06/14 01:48:26;;;;;;;3.33;2.13;;;;;;;;;;4994747;28;20614;-84
2022/06/14 01:53:46;;;;;;;2.37;2.13;;;;;;;;;;4994031;28;20234;-84
2022/06/14 01:56:16;;;;;;;2.13;1.97;;;;;;;;;;4993729;28;20252;-84
2022/06/14 01:58:48;;;;;;;2.20;2.10;;;;;;;;;;4993871;28;20211;-84
2022/06/14 02:01:17;;;;;;;2.17;2.07;;;;;;;;;;4999217;28;20235;-84
2022/06/14 02:06:35;;;;;;;2.27;2.07;;;;;;;;;;4993662;28;20222;-85
2022/06/14 02:09:04;;;;;;;2.27;2.07;;;;;;;;;;4993763;28;20234;-84
2022/06/14 02:11:34;;;;;;;3.10;2.40;;;;;;;;;;4993860;28;20216;-84
2022/06/14 02:14:06;;;;;;;2.10;2.00;;;;;;;;;;4993302;28;20227;-84
2022/06/14 02:16:35;;;;;;;2.20;2.00;;;;;;;;;;4993316;28;20606;-84
2022/06/14 02:19:06;;;;;;;2.23;2.10;;;;;;;;;;4993635;28;20266;-84
2022/06/14 02:21:34;;;;;;;2.20;2.10;;;;;;;;;;4993929;28;20610;-84
2022/06/14 02:24:05;;;;;;;2.20;2.00;;;;;;;;;;4992905;28;20232;-85
2022/06/14 02:26:37;;;;;;;2.40;2.20;;;;;;;;;;4993528;28;20275;-84
2022/06/14 02:29:05;;;;;;;2.20;2.10;;;;;;;;;;4993395;28;20199;-84
2022/06/14 02:31:35;;;;;;;2.40;2.20;;;;;;;;;;4993687;28;20204;-84
2022/06/14 02:34:05;;;;;;;2.93;2.43;;;;;;;;;;4992957;28;20243;-84
2022/06/14 02:36:34;;;;;;;2.60;2.23;;;;;;;;;;4994561;28;20556;-84
2022/06/14 02:39:02;;;;;;;3.70;2.07;;;;;;;;;;4994485;28;20200;-85
2022/06/14 02:41:31;;;;;;;2.50;2.17;;;;;;;;;;4994425;28;20224;-84
2022/06/14 02:44:01;;;;;;;2.43;2.23;;;;;;;;;;4993486;28;20224;-84
2022/06/14 02:46:30;;;;;;;3.03;2.40;;;;;;;;;;4993322;28;20255;-84
2022/06/14 02:49:00;;;;;;;1.90;1.80;;;;;;;;;;4993371;28;20304;-84
2022/06/14 02:51:29;;;;;;;2.50;2.10;;;;;;;;;;4993214;28;20232;-84
2022/06/14 02:53:58;;;;;;;2.23;2.13;;;;;;;;;;4992862;28;20231;-84
2022/06/14 02:56:27;;;;;;;2.03;1.93;;;;;;;;;;4992676;28;20220;-85
2022/06/14 02:58:56;;;;;;;2.20;2.00;;;;;;;;;;4992898;28;20303;-85
2022/06/14 03:01:27;;;;;;;2.60;2.40;;;;;;;;;;4992737;28;20591;-85
2022/06/14 03:03:58;;;;;;;2.40;2.20;;;;;;;;;;4992700;28;20231;-85
2022/06/14 03:06:29;;;;;;;1.93;1.80;;;;;;;;;;4992947;28;20688;-84
2022/06/14 03:08:58;;;;;;;1.90;1.80;;;;;;;;;;4995658;28;20215;-84
2022/06/14 03:11:32;;;;;;;3.23;2.17;;;;;;;;;;4995463;28;20236;-84
2022/06/14 03:14:01;;;;;;;2.10;2.00;;;;;;;;;;4995241;28;20262;-84
2022/06/14 03:16:33;;;;;;;2.00;1.90;;;;;;;;;;4995130;28;20239;-84
2022/06/14 03:19:02;;;;;;;2.10;2.00;;;;;;;;;;4994809;28;20215;-84
2022/06/14 03:21:34;;;;;;;3.80;2.10;;;;;;;;;;4995138;28;20208;-84
2022/06/14 03:24:05;;;;;;;2.20;2.00;;;;;;;;;;4995291;28;20223;-84
2022/06/14 03:26:37;;;;;;;2.60;2.37;;;;;;;;;;4994675;28;20617;-84
2022/06/14 03:29:06;;;;;;;2.67;2.47;;;;;;;;;;4994873;28;20192;-85
2022/06/14 03:31:36;;;;;;;2.40;2.20;;;;;;;;;;4995840;28;20200;-85
2022/06/14 03:34:05;;;;;;;2.50;2.30;;;;;;;;;;4993991;28;20239;-86
2022/06/14 03:36:33;;;;;;;2.23;2.13;;;;;;;;;;4995114;28;20262;-86
2022/06/14 03:39:03;;;;;;;2.00;1.90;;;;;;;;;;4994979;28;20208;-86
2022/06/14 03:41:32;;;;;;;2.53;2.00;;;;;;;;;;4994704;28;20679;-86
2022/06/14 03:44:01;;;;;;;2.37;2.20;;;;;;;;;;4994911;28;20683;-85
2022/06/14 03:46:30;;;;;;;2.20;2.10;;;;;;;;;;4995584;28;20227;-86
2022/06/14 03:49:00;;;;;;;2.00;1.90;;;;;;;;;;4995910;28;20266;-85
2022/06/14 03:51:35;;;;;;;2.43;2.23;;;;;;;;;;4995571;28;20227;-86
2022/06/14 03:54:09;;;;;;;4.60;2.10;;;;;;;;;;4995337;28;20231;-85
2022/06/14 03:56:40;;;;;;;2.10;2.00;;;;;;;;;;4995540;28;20208;-85
2022/06/14 03:59:14;;;;;;;1.97;1.87;;;;;;;;;;4994199;28;20259;-85
2022/06/14 04:01:43;;;;;;;2.37;2.17;;;;;;;;;;4996464;28;20202;-85
2022/06/14 04:04:18;;;;;;;3.10;2.30;;;;;;;;;;5000486;28;20224;-85
2022/06/14 04:06:50;;;;;;;2.40;2.17;;;;;;;;;;4992179;28;20200;-85
2022/06/14 04:09:21;;;;;;;2.57;2.37;;;;;;;;;;4993627;28;20212;-85
2022/06/14 04:11:51;;;;;;;3.13;2.70;;;;;;;;;;4987787;28;20204;-85
2022/06/14 04:14:27;;;;;;;2.37;2.27;;;;;;;;;;4996087;28;20232;-85
2022/06/14 04:16:59;;;;;;;2.53;2.40;;;;;;;;;;4996001;28;20210;-85
2022/06/14 04:19:37;;;;;;;2.10;2.00;;;;;;;;;;5000747;28;20243;-85
2022/06/14 04:22:11;;;;;;;2.57;2.47;;;;;;;;;;4976998;28;20193;-85
2022/06/14 04:24:43;;;;;;;2.63;2.43;;;;;;;;;;4976167;28;20232;-84
2022/06/14 04:27:13;;;;;;;2.60;2.23;;;;;;;;;;4976975;28;20209;-85
2022/06/14 04:29:45;;;;;;;3.00;2.50;;;;;;;;;;4976889;28;20252;-85
2022/06/14 04:32:14;;;;;;;2.43;2.23;;;;;;;;;;4977084;28;20197;-85
2022/06/14 04:34:46;;;;;;;2.47;2.37;;;;;;;;;;4976147;28;20240;-85
2022/06/14 04:37:15;;;;;;;3.43;2.30;;;;;;;;;;4980824;28;20193;-83
2022/06/14 04:39:44;;;;;;;3.03;2.73;;;;;;;;;;4985513;28;20236;-83
2022/06/14 04:42:13;;;;;;;2.60;2.40;;;;;;;;;;4985420;28;20209;-82
2022/06/14 04:44:43;;;;;;;2.60;2.40;;;;;;;;;;4984343;28;20246;-83
2022/06/14 04:47:13;;;;;;;3.03;2.77;;;;;;;;;;4978174;28;20683;-84
2022/06/14 04:49:44;;;;;;;3.87;2.90;;;;;;;;;;4998874;28;20228;-82
2022/06/14 04:52:14;;;;;;;2.67;2.47;;;;;;;;;;5004111;28;20223;-82
2022/06/14 04:54:45;;;;;;;3.10;2.80;;;;;;;;;;5002571;28;20242;-83
2022/06/14 04:57:15;;;;;;;3.93;2.70;;;;;;;;;;5001263;28;20695;-84
2022/06/14 04:59:44;;;;;;;2.93;2.73;;;;;;;;;;4997059;28;20632;-85
2022/06/14 05:02:13;;;;;;;3.47;2.77;;;;;;;;;;4995577;28;20218;-85
2022/06/14 05:04:43;;;;;;;6.47;2.70;;;;;;;;;;4995075;28;20242;-85
2022/06/14 05:07:15;;;;;;;3.10;2.80;;;;;;;;;;4995528;28;20216;-84
2022/06/14 05:09:45;;;;;;;3.13;2.83;;;;;;;;;;4994761;28;20238;-86
2022/06/14 05:12:16;;;;;;;3.83;3.23;;;;;;;;;;4995545;28;20200;-85
2022/06/14 05:14:45;;;;;;;3.33;3.03;;;;;;;;;;4997579;28;20246;-83
2022/06/14 05:17:14;;;;;;;4.53;2.90;;;;;;;;;;4998726;28;20208;-84
2022/06/14 05:19:45;;;;;;;6.00;3.50;;;;;;;;;;4996951;28;20235;-84
2022/06/14 05:22:16;;;;;;;3.13;2.80;;;;;;;;;;4996377;28;20219;-84
2022/06/14 05:24:43;;;;;;;2.90;2.70;;;;;;;;;;4995653;28;20236;-84
2022/06/14 05:27:30;;;;;;;3.13;2.90;;;;;;;;;;4996641;28;20263;-84
2022/06/14 05:30:00;;;;;;;3.67;3.10;;;;;;;;;;4995062;28;20243;-83
2022/06/14 05:32:30;;;;;;;6.20;3.30;;;;;;;;;;4998215;28;20200;-83
2022/06/14 05:35:04;;;;;;;3.30;3.10;;;;;;;;;;4997441;28;20242;-84
2022/06/14 05:37:36;;;;;;;4.07;3.03;;;;;;;;;;4998386;28;20696;-84
2022/06/14 05:40:10;;;;;;;2.97;2.77;;;;;;;;;;4997148;28;20238;-84
2022/06/14 05:42:41;;;;;;;4.10;3.70;;;;;;;;;;4998700;28;20212;-84
2022/06/14 05:45:11;;;;;;;3.50;3.20;;;;;;;;;;4997190;28;20244;-84
2022/06/14 05:47:40;;;;;;;3.40;3.10;;;;;;;;;;4998389;28;20207;-84
2022/06/14 05:50:08;;;;;;;3.27;3.07;;;;;;;;;;4997603;28;20704;-83
2022/06/14 05:52:40;;;;;;;3.03;2.83;;;;;;;;;;5006859;28;20227;-84
2022/06/14 05:55:11;;;;;;;2.70;2.47;;;;;;;;;;5008371;28;20247;-82
2022/06/14 05:57:40;;;;;;;4.80;2.50;;;;;;;;;;4999525;28;20212;-83
2022/06/14 06:00:10;;;;;;;2.77;2.57;;;;;;;;;;5001636;28;20239;-83
2022/06/14 06:02:40;;;;;;;2.30;2.20;;;;;;;;;;4998395;28;20208;-83
2022/06/14 06:05:12;;;;;;;2.63;2.43;;;;;;;;;;4997863;28;20251;-84
2022/06/14 06:07:43;;;;;;;2.40;2.30;;;;;;;;;;4998541;28;20207;-83
2022/06/14 06:10:12;;;;;;;2.70;2.40;;;;;;;;;;4997663;28;20244;-83
2022/06/14 06:12:41;;;;;;;2.77;2.40;;;;;;;;;;4998768;28;20239;-83
2022/06/14 06:15:13;;;;;;;3.57;2.23;;;;;;;;;;4998235;28;20247;-83
2022/06/14 06:17:43;;;;;;;2.57;2.37;;;;;;;;;;4997836;28;20199;-83
2022/06/14 06:20:13;;;;;;;3.43;2.53;;;;;;;;;;4994440;28;20830;-84
2022/06/14 06:22:44;;;;;;;2.40;2.20;;;;;;;;;;4996292;28;20211;-83
2022/06/14 06:25:12;;;;;;;2.50;2.30;;;;;;;;;;4996669;28;20239;-84
2022/06/14 06:27:42;;;;;;;2.33;2.13;;;;;;;;;;4996822;28;20204;-84
2022/06/14 06:30:13;;;;;;;2.47;2.00;;;;;;;;;;4998684;28;20251;-83
2022/06/14 06:32:40;;;;;;;2.43;2.23;;;;;;;;;;4995117;28;20212;-85
2022/06/14 06:35:09;;;;;;;3.90;2.03;;;;;;;;;;4997339;28;20247;-84
2022/06/14 06:37:38;;;;;;;1.97;1.80;;;;;;;;;;4998459;28;20299;-83
2022/06/14 06:40:08;;;;;;;3.07;2.20;;;;;;;;;;4997515;28;20280;-84
2022/06/14 06:42:40;;;;;;;2.20;2.00;;;;;;;;;;4997762;28;20211;-84
2022/06/14 06:45:08;;;;;;;2.33;2.00;;;;;;;;;;4996766;28;20240;-83
2022/06/14 06:47:37;;;;;;;2.70;2.00;;;;;;;;;;4997513;28;20208;-84
2022/06/14 06:50:26;;;;;;;2.47;1.70;;;;;;;;;;4995882;28;20610;-83
2022/06/14 06:53:02;;;;;;;2.10;1.90;;;;;;;;;;4995597;28;20213;-83
2022/06/14 06:55:44;;;;;;;2.27;1.90;;;;;;;;;;4976647;28;20236;-84
2022/06/14 06:58:14;;;;;;;2.50;2.00;;;;;;;;;;4977698;28;20200;-83
2022/06/14 07:00:42;;;;;;;4.05;1.70;;;;;;;;;;4977224;28;20236;-84
2022/06/14 07:03:13;;;;;;;1.77;1.67;;;;;;;;;;4977782;28;20212;-85
2022/06/14 07:05:41;;;;;;;2.58;1.90;;;;;;;;;;4985883;28;20230;-84
2022/06/14 07:08:11;;;;;;;3.90;1.75;;;;;;;;;;4996381;28;20204;-84
2022/06/14 07:10:40;;;;;;;3.38;1.83;;;;;;;;;;4992978;28;20718;-84
2022/06/14 07:13:15;;;;;;;2.90;1.90;;;;;;;;;;4992519;28;20208;-84
2022/06/14 07:15:44;;;;;;;2.10;1.40;;;;;;;;;;5021648;23;20221;-84
2022/06/14 07:18:14;;;;;;;2.88;1.58;;;;;;;;;;5012629;28;20225;-85
2022/06/14 07:20:48;;;;;;;2.90;1.77;;;;;;;;;;5012209;28;20242;-84
2022/06/14 07:23:18;;;;;;;2.13;1.65;;;;;;;;;;5012000;28;20694;-84
2022/06/14 07:25:54;;;;;;;1.80;1.58;;;;;;;;;;5011965;28;20242;-84
2022/06/14 07:28:25;;;;;;;2.63;1.60;;;;;;;;;;5012410;28;20671;-84
2022/06/14 07:30:54;;;;;;;1.65;1.42;;;;;;;;;;5012425;28;20257;-86
2022/06/14 07:33:23;;;;;;;2.15;1.05;;;;;;;;;;5012686;28;20303;-86
2022/06/14 07:35:53;;;;;;;1.33;1.23;;;;;;;;;;5014617;28;20234;-86
2022/06/14 07:38:24;;;;;;;1.10;1.00;;;;;;;;;;5016818;28;20223;-86
2022/06/14 07:40:53;;;;;;;1.40;1.30;;;;;;;;;;5016349;28;20235;-86
2022/06/14 07:43:26;;;;;;;1.38;1.27;;;;;;;;;;5019157;28;20214;-88
2022/06/14 07:45:54;;;;;;;2.75;1.23;;;;;;;;;;5015763;28;20243;-86
2022/06/14 07:48:26;;;;;;;2.20;1.77;;;;;;;;;;5017330;28;20207;-87
2022/06/14 07:50:55;;;;;;;3.58;1.65;;;;;;;;;;5016002;28;20239;-86
2022/06/14 07:53:26;;;;;;;1.40;1.30;;;;;;;;;;5016429;28;20578;-86
2022/06/14 07:55:56;;;;;;;2.80;1.50;;;;;;;;;;5016353;28;20242;-86
2022/06/14 07:58:28;;;;;;;1.30;1.20;;;;;;;;;;5016110;28;20210;-86
2022/06/14 08:01:08;;;;;;;1.40;1.30;;;;;;;;;;5016362;28;20722;-87
2022/06/14 08:03:37;;;;;;;3.40;1.80;;;;;;;;;;5016352;28;20557;-86
2022/06/14 08:06:05;;;;;;;4.20;1.48;;;;;;;;;;5015960;28;20306;-86
2022/06/14 08:08:34;;;;;;;1.15;1.05;;;;;;;;;;5016312;28;20211;-87
2022/06/14 08:11:04;;;;;;;3.10;1.60;;;;;;;;;;5015434;28;20231;-87
2022/06/14 08:13:34;;;;;;;1.50;1.40;;;;;;;;;;5015776;28;20203;-87
2022/06/14 08:16:02;;;;;;;2.28;1.60;;;;;;;;;;5015460;28;20235;-87
2022/06/14 08:18:31;;;;;;;1.60;1.50;;;;;;;;;;5015702;28;20257;-87
2022/06/14 08:21:01;;;;;;;2.10;1.02;;;;;;;;;;5015003;28;20238;-87
2022/06/14 08:23:31;;;;;;;1.10;1.08;;;;;;;;;;5015662;28;20207;-87
2022/06/14 08:26:03;;;;;;;1.45;1.35;;;;;;;;;;5015071;28;20235;-87
2022/06/14 08:28:33;;;;;;;1.25;1.13;;;;;;;;;;5015716;28;20585;-87
2022/06/14 08:31:03;;;;;;;1.85;1.35;;;;;;;;;;5015168;28;20250;-87
2022/06/14 08:33:33;;;;;;;3.47;1.00;;;;;;;;;;5015028;28;20215;-86
2022/06/14 08:36:03;;;;;;;1.13;1.10;;;;;;;;;;5029370;28;20471;-86
2022/06/14 08:38:32;;;;;;;1.27;1.00;;;;;;;;;;5032834;28;20214;-86
2022/06/14 08:41:10;;;;;;;1.08;0.98;;;;;;;;;;5014447;28;20239;-87
2022/06/14 08:43:42;;;;;;;0.98;0.90;;;;;;;;;;5015234;28;20214;-86
2022/06/14 08:46:19;;;;;;;2.58;0.95;;;;;;;;;;4997208;28;20618;-86
2022/06/14 08:48:55;;;;;;;1.92;1.02;;;;;;;;;;4995487;28;20580;-87
2022/06/14 08:51:30;;;;;;;1.00;0.90;;;;;;;;;;4997370;28;20587;-87
2022/06/14 08:54:18;;;;;;;0.98;0.98;;;;;;;;;;5028655;28;20198;-87
2022/06/14 08:56:55;;;;;;;4.13;0.93;;;;;;;;;;5000215;28;20231;-86
2022/06/14 08:59:40;;;;;;;1.67;0.73;;;;;;;;;;5024309;28;20249;-86
2022/06/14 09:02:21;;;;;;;0.80;0.80;;;;;;;;;;5026788;28;20214;-86
2022/06/14 09:05:02;;;;;;;1.15;0.70;;;;;;;;;;5018645;28;20690;-86
2022/06/14 09:07:47;;;;;;;1.08;0.82;;;;;;;;;;5033912;28;20399;-87
2022/06/14 09:10:20;;;;;;;0.77;0.77;;;;;;;;;;5033390;28;20242;-86
2022/06/14 09:13:01;;;;;;;2.67;0.93;;;;;;;;;;5033729;28;20191;-86
2022/06/14 09:15:40;;;;;;;0.80;0.80;;;;;;;;;;5021297;28;20385;-86
2022/06/14 09:18:19;;;;;;;0.70;0.70;;;;;;;;;;5013551;28;20203;-85
2022/06/14 09:20:53;;;;;;;0.82;0.70;;;;;;;;;;5018628;28;20231;-84
2022/06/14 09:23:23;;;;;;;1.10;0.63;;;;;;;;;;5023127;28;20217;-85
2022/06/14 09:25:59;;;;;;;0.63;0.63;;;;;;;;;;5024334;28;20243;-86
2022/06/14 09:28:40;;;;;;;0.82;0.80;;;;;;;;;;5009719;28;20203;-86
2022/06/14 09:31:17;;;;;;;1.20;0.77;;;;;;;;;;4993497;28;20289;-86
2022/06/14 09:34:00;;;;;;;1.00;0.90;;;;;;;;;;4995561;28;20200;-85
2022/06/14 09:36:39;;;;;;;1.17;0.90;;;;;;;;;;5018660;28;20706;-86
2022/06/14 09:39:27;;;;;;;1.23;1.10;;;;;;;;;;5032560;28;20256;-85
2022/06/14 09:42:07;;;;;;;1.90;0.75;;;;;;;;;;5027883;28;20207;-85
2022/06/14 09:44:46;;;;;;;0.90;0.60;;;;;;;;;;5029351;28;20245;-85
2022/06/14 09:47:29;;;;;;;1.45;0.80;;;;;;;;;;5012800;28;20548;-86
2022/06/14 09:50:11;;;;;;;1.08;0.95;;;;;;;;;;4993118;28;20602;-86
2022/06/14 09:52:56;;;;;;;2.92;1.00;;;;;;;;;;4991774;28;20215;-86
2022/06/14 09:55:38;;;;;;;0.40;0.35;;;;;;;;;;4992528;28;20667;-86
2022/06/14 09:58:23;;;;;;;2.08;1.02;;;;;;;;;;4992384;28;20222;-85
2022/06/14 10:00:55;;;;;;;0.68;0.57;;;;;;;;;;4992419;28;20289;-86
2022/06/14 10:03:39;;;;;;;0.60;0.60;;;;;;;;;;4992538;28;20606;-85
2022/06/14 10:06:14;;;;;;;0.70;0.70;;;;;;;;;;4992802;28;20657;-86
2022/06/14 10:08:52;;;;;;;0.82;0.80;;;;;;;;;;4993368;28;20207;-87
2022/06/14 10:11:29;;;;;;;0.75;0.70;;;;;;;;;;4992348;28;20246;-86
2022/06/14 10:14:14;;;;;;;0.30;0.30;;;;;;;;;;4992274;28;20216;-86
2022/06/14 10:16:59;;;;;;;1.42;0.63;;;;;;;;;;4992251;28;20270;-86
2022/06/14 10:19:33;;;;;;;0.70;0.70;;;;;;;;;;4992160;28;20700;-85
2022/06/14 10:22:04;;;;;;;0.30;0.30;;;;;;;;;;4992792;28;20212;-84
2022/06/14 10:24:33;;;;;;;1.13;0.60;;;;;;;;;;4991845;28;20269;-84
2022/06/14 10:29:59;;;;;;;1.33;0.70;;;;;;;;;;4993667;28;20290;-84
2022/06/14 10:32:39;;;;;;;0.50;0.50;;;;;;;;;;4996127;28;20567;-84
2022/06/14 10:35:09;;;;;;;0.93;0.70;;;;;;;;;;4993390;28;20246;-84
2022/06/14 10:37:47;;;;;;;2.92;0.77;;;;;;;;;;4992530;28;20696;-85
2022/06/14 10:40:27;;;;;;;0.80;0.70;;;;;;;;;;4991759;28;20242;-84
2022/06/14 10:42:59;;;;;;;0.93;0.70;;;;;;;;;;4992324;28;20212;-85
2022/06/14 10:45:28;;;;;;;0.95;0.68;;;;;;;;;;4992616;28;20724;-84
2022/06/14 10:48:12;;;;;;;0.47;0.47;;;;;;;;;;5000471;28;20204;-86
2022/06/14 10:50:48;;;;;;;0.60;0.60;;;;;;;;;;4992184;28;20251;-86
2022/06/14 10:53:20;;;;;;;0.50;0.50;;;;;;;;;;4992402;28;20601;-86
2022/06/14 10:55:57;;;;;;;0.43;0.43;;;;;;;;;;4991819;28;20240;-86
2022/06/14 10:58:36;;;;;;;0.95;0.77;;;;;;;;;;4992424;28;20199;-86
2022/06/14 11:01:12;;;;;;;0.50;0.50;;;;;;;;;;4991622;28;20250;-86
2022/06/14 11:03:47;;;;;;;0.65;0.45;;;;;;;;;;4991742;28;20199;-86
2022/06/14 11:06:29;;;;;;;0.75;0.50;;;;;;;;;;4991477;28;20243;-86
2022/06/14 11:09:02;;;;;;;0.55;0.55;;;;;;;;;;4993129;28;20203;-87
2022/06/14 11:11:41;;;;;;;0.40;0.40;;;;;;;;;;5013455;28;20222;-87
2022/06/14 11:14:13;;;;;;;0.22;0.22;;;;;;;;;;5010992;28;20210;-87
2022/06/14 11:16:47;;;;;;;0.47;0.47;;;;;;;;;;5015315;28;20225;-86
2022/06/14 11:19:28;;;;;;;0.68;0.40;;;;;;;;;;5022742;28;20538;-86
2022/06/14 11:22:02;;;;;;;0.52;0.50;;;;;;;;;;5031649;28;20226;-86
2022/06/14 11:24:34;;;;;;;0.43;0.38;;;;;;;;;;5030308;28;20241;-86
2022/06/14 11:27:04;;;;;;;0.20;0.20;;;;;;;;;;5031779;28;20222;-86
2022/06/14 11:29:37;;;;;;;2.05;1.00;;;;;;;;;;5030401;28;20384;-87
2022/06/14 11:32:08;;;;;;;0.95;0.30;;;;;;;;;;5031550;28;20198;-86
2022/06/14 11:34:42;;;;;;;0.95;0.32;;;;;;;;;;5030371;28;20291;-87
2022/06/14 11:37:20;;;;;;;0.50;0.30;;;;;;;;;;5031106;28;20210;-87
2022/06/14 11:39:49;;;;;;;0.20;0.20;;;;;;;;;;5030965;28;20321;-87
2022/06/14 11:42:19;;;;;;;0.75;0.47;;;;;;;;;;5028302;28;20206;-86
2022/06/14 11:45:03;;;;;;;0.73;0.50;;;;;;;;;;5013686;28;20234;-86
2022/06/14 11:47:33;;;;;;;1.02;0.38;;;;;;;;;;5013380;28;20199;-85
2022/06/14 11:50:04;;;;;;;1.38;0.40;;;;;;;;;;5000377;28;20319;-86
2022/06/14 11:52:38;;;;;;;0.43;0.43;;;;;;;;;;5007876;28;20257;-87
2022/06/14 11:55:12;;;;;;;0.22;0.22;;;;;;;;;;5010422;28;20632;-86
2022/06/14 11:57:44;;;;;;;0.43;0.43;;;;;;;;;;5011296;28;20207;-86
2022/06/14 12:00:23;;;;;;;0.88;0.50;;;;;;;;;;5010793;28;20242;-87
2022/06/14 12:02:59;;;;;;;0.70;0.40;;;;;;;;;;5011119;28;20209;-85
2022/06/14 12:05:32;;;;;;;1.63;0.52;;;;;;;;;;5010594;28;20241;-86
2022/06/14 12:08:02;;;;;;;0.90;0.65;;;;;;;;;;5010684;28;20565;-86
2022/06/14 12:10:47;;;;;;;0.57;0.57;;;;;;;;;;5010245;28;20266;-86
2022/06/14 12:13:18;;;;;;;0.60;0.40;;;;;;;;;;5027328;28;20202;-86
2022/06/14 12:15:51;;;;;;;0.50;0.50;;;;;;;;;;5015210;28;20284;-86
2022/06/14 12:18:20;;;;;;;0.95;0.50;;;;;;;;;;5011472;28;20187;-86
2022/06/14 12:20:51;;;;;;;0.38;0.38;;;;;;;;;;5010630;28;20266;-86
2022/06/14 12:23:23;;;;;;;0.75;0.75;;;;;;;;;;5014907;28;20191;-85
2022/06/14 12:28:42;;;;;;;0.45;0.45;;;;;;;;;;5014707;28;20191;-86
2022/06/14 12:33:59;;;;;;;0.60;0.60;;;;;;;;;;5013922;28;20210;-85
2022/06/14 12:36:29;;;;;;;0.70;0.70;;;;;;;;;;5014451;28;20242;-85
2022/06/14 12:38:58;;;;;;;0.60;0.60;;;;;;;;;;5014226;28;20955;-85
2022/06/14 12:41:28;;;;;;;0.35;0.35;;;;;;;;;;5013936;28;20231;-86
2022/06/14 12:44:05;;;;;;;0.30;0.30;;;;;;;;;;5014434;28;20274;-86
2022/06/14 12:46:35;;;;;;;0.55;0.50;;;;;;;;;;5014709;28;20223;-87
2022/06/14 12:49:05;;;;;;;0.65;0.55;;;;;;;;;;5014608;28;20187;-86
2022/06/14 12:51:34;;;;;;;1.02;0.40;;;;;;;;;;5014914;28;20214;-86
2022/06/14 12:54:06;;;;;;;0.75;0.60;;;;;;;;;;5013912;28;20214;-86
2022/06/14 12:56:34;;;;;;;0.57;0.57;;;;;;;;;;5017383;28;20218;-86
2022/06/14 12:59:10;;;;;;;0.38;0.38;;;;;;;;;;5033672;28;20213;-87
2022/06/14 13:01:43;;;;;;;0.50;0.50;;;;;;;;;;5034469;28;20553;-87
2022/06/14 13:04:14;;;;;;;0.45;0.45;;;;;;;;;;5033525;28;20201;-86
2022/06/14 13:07:05;;;;;;;0.43;0.40;;;;;;;;;;5034541;28;20190;-86
2022/06/14 13:09:35;;;;;;;0.35;0.35;;;;;;;;;;5013844;28;20231;-86
2022/06/14 13:12:08;;;;;;;1.00;0.68;;;;;;;;;;5033886;28;20221;-86
2022/06/14 13:14:41;;;;;;;0.80;0.80;;;;;;;;;;5053802;22;20313;-86
2022/06/14 13:17:16;;;;;;;0.60;0.60;;;;;;;;;;5022313;28;20234;-88
2022/06/14 13:19:46;;;;;;;0.70;0.70;;;;;;;;;;4994638;28;20257;-86
2022/06/14 13:22:26;;;;;;;0.70;0.43;;;;;;;;;;4994830;28;20298;-86
2022/06/14 13:25:03;;;;;;;0.63;0.60;;;;;;;;;;4994382;28;20255;-86
2022/06/14 13:27:34;;;;;;;0.93;0.65;;;;;;;;;;4994948;28;20707;-87
2022/06/14 13:30:05;;;;;;;0.63;0.63;;;;;;;;;;4995067;28;20232;-86
2022/06/14 13:32:49;;;;;;;0.55;0.55;;;;;;;;;;4993927;28;20219;-86
2022/06/14 13:35:23;;;;;;;1.15;1.10;;;;;;;;;;4993243;28;20276;-85
2022/06/14 13:37:54;;;;;;;0.50;0.50;;;;;;;;;;4996278;28;20216;-86
2022/06/14 13:40:23;;;;;;;0.40;0.40;;;;;;;;;;4993851;28;20247;-86
2022/06/14 13:42:53;;;;;;;0.60;0.60;;;;;;;;;;4994132;28;20208;-84
2022/06/14 13:45:24;;;;;;;0.68;0.68;;;;;;;;;;4993139;28;20247;-84
2022/06/14 13:47:55;;;;;;;1.27;0.68;;;;;;;;;;4994785;28;20212;-85
2022/06/14 13:50:25;;;;;;;0.63;0.55;;;;;;;;;;4994000;28;20246;-85
2022/06/14 13:52:56;;;;;;;0.40;0.40;;;;;;;;;;4994680;28;20243;-84
2022/06/14 13:55:26;;;;;;;0.52;0.52;;;;;;;;;;4994483;28;20244;-84
2022/06/14 13:57:55;;;;;;;0.95;0.45;;;;;;;;;;4994929;28;20231;-85
2022/06/14 14:00:24;;;;;;;0.47;0.40;;;;;;;;;;4993838;28;20259;-85
2022/06/14 14:02:56;;;;;;;0.40;0.40;;;;;;;;;;4994440;28;20219;-85
2022/06/14 14:05:25;;;;;;;0.28;0.28;;;;;;;;;;4993574;28;20236;-87
2022/06/14 14:07:57;;;;;;;0.52;0.52;;;;;;;;;;4995105;28;20215;-87
2022/06/14 14:10:32;;;;;;;0.52;0.52;;;;;;;;;;4993984;28;20244;-87
2022/06/14 14:13:03;;;;;;;0.65;0.65;;;;;;;;;;4995272;28;20667;-88
2022/06/14 14:15:34;;;;;;;0.47;0.45;;;;;;;;;;4994103;28;20266;-89
2022/06/14 14:18:07;;;;;;;0.47;0.40;;;;;;;;;;4995134;28;20215;-87
2022/06/14 14:20:40;;;;;;;0.95;0.85;;;;;;;;;;4996313;28;20315;-87
2022/06/14 14:23:13;;;;;;;0.40;0.40;;;;;;;;;;5013264;28;20198;-87
2022/06/14 14:25:44;;;;;;;0.50;0.50;;;;;;;;;;5013365;28;20241;-87
2022/06/14 14:28:18;;;;;;;1.60;0.40;;;;;;;;;;5013674;28;20203;-87
2022/06/14 14:30:49;;;;;;;0.63;0.63;;;;;;;;;;4993814;28;20239;-88
2022/06/14 14:33:22;;;;;;;0.50;0.47;;;;;;;;;;5012358;28;20199;-85
2022/06/14 14:35:50;;;;;;;0.50;0.50;;;;;;;;;;4994610;28;20708;-85
2022/06/14 14:38:19;;;;;;;1.40;0.90;;;;;;;;;;5004915;28;20246;-85
2022/06/14 14:43:31;;;;;;;0.65;0.65;;;;;;;;;;5012072;28;20199;-87
2022/06/14 14:46:06;;;;;;;0.60;0.60;;;;;;;;;;5011713;28;20243;-86
2022/06/14 14:48:36;;;;;;;1.80;0.68;;;;;;;;;;5012625;28;20196;-86
2022/06/14 14:51:08;;;;;;;0.60;0.60;;;;;;;;;;5012287;28;20250;-86
2022/06/14 14:53:38;;;;;;;0.65;0.63;;;;;;;;;;5012402;28;20671;-86
2022/06/14 14:56:08;;;;;;;0.98;0.93;;;;;;;;;;5011908;28;20231;-85
2022/06/14 14:58:38;;;;;;;0.70;0.70;;;;;;;;;;5012994;28;20231;-85
2022/06/14 15:06:56;;;;;;;0.63;0.60;;;;;;;;;;5013646;28;20211;-84
2022/06/14 15:09:26;;;;;;;0.50;0.50;;;;;;;;;;5015264;28;20231;-81
2022/06/14 15:11:54;;;;;;;0.93;0.77;;;;;;;;;;5014184;28;20621;-79
2022/06/14 15:14:25;;;;;;;0.80;0.80;;;;;;;;;;5011320;28;20589;-79
2022/06/14 15:19:55;;;;;;;2.15;0.68;;;;;;;;;;5012736;28;20311;-79
2022/06/14 15:22:25;;;;;;;2.67;0.60;;;;;;;;;;5014203;28;20275;-81
2022/06/14 15:24:54;;;;;;;1.23;0.70;;;;;;;;;;5011860;28;20289;-82
2022/06/14 15:27:38;;;;;;;1.05;0.73;;;;;;;;;;5011318;28;20191;-81
2022/06/14 15:30:05;;;;;;;0.77;0.50;;;;;;;;;;5012510;28;20262;-82
2022/06/14 15:32:34;;;;;;;0.63;0.63;;;;;;;;;;5018043;28;20211;-79
2022/06/14 15:35:03;;;;;;;0.55;0.55;;;;;;;;;;5014806;28;20235;-79
2022/06/14 15:37:32;;;;;;;1.75;0.90;;;;;;;;;;5012171;28;20226;-79